createdAt,value
2023-03-22T00:03:17.550Z,93945.00
2023-03-22T00:07:28.448Z,93953.00
2023-03-22T00:11:33.476Z,93938.00
2023-03-22T00:15:39.762Z,93946.00
2023-03-22T00:19:45.251Z,93914.00
2023-03-22T00:23:48.968Z,93935.00
2023-03-22T00:27:54.421Z,93927.00
2023-03-22T00:31:58.059Z,93923.00
2023-03-22T00:36:52.208Z,93938.00
2023-03-22T00:41:24.113Z,93931.00
2023-03-22T00:45:29.203Z,93910.00
2023-03-22T00:49:32.808Z,93932.00
2023-03-22T00:54:04.340Z,93937.00
2023-03-22T00:58:09.393Z,93927.00
2023-03-22T01:02:15.326Z,93899.00
2023-03-22T01:06:39.196Z,93927.00
2023-03-22T01:10:44.840Z,93900.00
2023-03-22T01:14:48.505Z,93902.00
2023-03-22T01:18:54.134Z,93895.00
2023-03-22T01:22:58.214Z,93926.00
2023-03-22T01:27:02.181Z,93888.00
2023-03-22T01:31:34.553Z,93905.00
2023-03-22T01:35:41.259Z,93882.00
2023-03-22T01:39:49.643Z,93873.00
2023-03-22T01:44:21.355Z,93895.00
2023-03-22T01:48:28.480Z,93885.00
2023-03-22T01:52:33.724Z,93893.00
2023-03-22T01:56:54.365Z,93887.00
2023-03-22T02:01:41.228Z,93891.00
2023-03-22T02:05:45.914Z,93890.00
2023-03-22T02:09:52.216Z,93863.00
2023-03-22T02:14:27.484Z,93884.00
2023-03-22T02:19:18.761Z,93882.00
2023-03-22T02:23:44.597Z,93865.00
2023-03-22T02:28:20.857Z,93885.00
2023-03-22T02:32:49.873Z,93883.00
2023-03-22T02:37:27.580Z,93876.00
2023-03-22T02:42:22.598Z,93874.00
2023-03-22T02:46:52.345Z,93862.00
2023-03-22T02:51:08.802Z,93869.00
2023-03-22T02:59:53.203Z,93872.00
2023-03-22T03:04:01.356Z,93859.00
2023-03-22T03:08:05.933Z,93872.00
2023-03-22T03:12:19.305Z,93874.00
2023-03-22T03:16:27.650Z,93876.00
2023-03-22T03:21:00.505Z,93870.00
2023-03-22T03:25:18.459Z,93843.00
2023-03-22T03:29:31.868Z,93878.00
2023-03-22T03:33:37.208Z,93853.00
2023-03-22T03:37:47.370Z,93864.00
2023-03-22T03:41:53.950Z,93859.00
2023-03-22T03:45:58.479Z,93888.00
2023-03-22T03:50:52.531Z,93887.00
2023-03-22T03:54:58.345Z,93866.00
2023-03-22T03:59:16.052Z,93886.00
2023-03-22T04:03:20.187Z,93878.00
2023-03-22T04:07:40.640Z,93865.00
2023-03-22T04:12:41.017Z,93877.00
2023-03-22T04:16:51.547Z,93876.00
2023-03-22T04:20:57.741Z,93866.00
2023-03-22T04:25:04.499Z,93880.00
2023-03-22T04:29:08.881Z,93895.00
2023-03-22T04:33:56.355Z,93896.00
2023-03-22T04:38:08.163Z,93864.00
2023-03-22T04:42:12.734Z,93868.00
2023-03-22T04:46:44.682Z,93898.00
2023-03-22T04:50:53.711Z,93886.00
2023-03-22T04:55:04.489Z,93891.00
2023-03-22T04:59:11.052Z,93876.00
2023-03-22T05:03:14.837Z,93902.00
2023-03-22T05:07:23.450Z,93903.00
2023-03-22T05:11:31.285Z,93909.00
2023-03-22T05:16:32.883Z,93919.00
2023-03-22T05:20:39.036Z,93900.00
2023-03-22T05:24:49.385Z,93902.00
2023-03-22T05:29:08.210Z,93909.00
2023-03-22T05:33:32.197Z,93921.00
2023-03-22T05:37:35.990Z,93920.00
2023-03-22T05:41:44.899Z,93924.00
2023-03-22T05:45:49.632Z,93925.00
2023-03-22T05:50:11.016Z,93932.00
2023-03-22T05:54:14.853Z,93907.00
2023-03-22T05:58:29.101Z,93908.00
2023-03-22T06:02:33.349Z,93901.00
2023-03-22T06:06:37.229Z,93935.00
2023-03-22T06:10:52.320Z,93926.00
2023-03-22T06:14:57.610Z,93914.00
2023-03-22T06:19:21.278Z,93931.00
2023-03-22T06:23:25.228Z,93922.00
2023-03-22T06:27:30.193Z,93932.00
2023-03-22T06:31:35.769Z,93940.00
2023-03-22T06:35:44.376Z,93941.00
2023-03-22T06:39:52.922Z,93920.00
2023-03-22T06:44:00.535Z,93941.00
2023-03-22T06:54:24.848Z,93915.00
2023-03-22T06:58:41.277Z,93919.00
2023-03-22T07:02:45.057Z,93946.00
2023-03-22T07:07:57.662Z,93938.00
2023-03-22T07:12:05.486Z,93916.00
2023-03-22T07:16:11.939Z,93937.00
2023-03-22T07:20:20.146Z,93948.00
2023-03-22T07:24:25.467Z,93930.00
2023-03-22T07:28:44.853Z,93933.00
2023-03-22T07:32:50.712Z,93936.00
2023-03-22T07:36:57.274Z,93920.00
2023-03-22T07:41:51.699Z,93937.00
2023-03-22T07:45:59.828Z,93933.00
2023-03-22T07:50:22.300Z,93949.00
2023-03-22T07:54:46.345Z,93923.00
2023-03-22T07:58:50.235Z,93936.00
2023-03-22T08:02:56.560Z,93936.00
2023-03-22T08:07:15.920Z,93949.00
2023-03-22T08:11:29.011Z,93937.00
2023-03-22T08:15:39.170Z,93943.00
2023-03-22T08:19:45.542Z,93943.00
2023-03-22T08:24:14.439Z,93925.00
2023-03-22T08:28:38.488Z,93951.00
2023-03-22T08:32:42.609Z,93957.00
2023-03-22T08:36:54.326Z,93941.00
2023-03-22T08:40:58.115Z,93940.00
2023-03-22T08:45:31.984Z,93960.00
2023-03-22T08:49:44.635Z,93941.00
2023-03-22T08:54:01.090Z,93943.00
2023-03-22T08:58:23.254Z,93941.00
2023-03-22T09:02:45.108Z,93951.00
2023-03-22T09:06:49.484Z,93947.00
2023-03-22T09:10:56.625Z,93961.00
2023-03-22T09:15:01.115Z,93938.00
2023-03-22T09:19:26.792Z,93954.00
2023-03-22T09:23:30.640Z,93957.00
2023-03-22T09:27:36.863Z,93931.00
2023-03-22T09:31:49.141Z,93947.00
2023-03-22T09:35:58.190Z,93922.00
2023-03-22T09:40:02.108Z,93933.00
2023-03-22T09:44:22.565Z,93928.00
2023-03-22T09:48:32.741Z,93903.00
2023-03-22T09:52:36.722Z,93907.00
2023-03-22T09:56:41.870Z,93905.00
2023-03-22T10:00:57.424Z,93896.00
2023-03-22T10:05:11.567Z,93909.00
2023-03-22T10:09:19.751Z,93915.00
2023-03-22T10:13:33.932Z,93909.00
2023-03-22T10:17:43.358Z,93894.00
2023-03-22T10:21:49.820Z,93906.00
2023-03-22T10:25:57.826Z,93881.00
2023-03-22T10:30:27.859Z,93895.00
2023-03-22T10:34:33.902Z,93894.00
2023-03-22T10:38:53.735Z,93890.00
2023-03-22T10:43:01.187Z,93880.00
2023-03-22T10:47:08.484Z,93895.00
2023-03-22T10:51:41.520Z,93886.00
2023-03-22T10:55:46.563Z,93864.00
2023-03-22T10:59:52.689Z,93882.00
2023-03-22T11:03:59.677Z,93882.00
2023-03-22T11:08:06.945Z,93868.00
2023-03-22T11:12:14.855Z,93885.00
2023-03-22T11:16:20.463Z,93864.00
2023-03-22T11:20:24.337Z,93882.00
2023-03-22T11:24:34.765Z,93867.00
2023-03-22T11:28:42.512Z,93854.00
2023-03-22T11:32:46.365Z,93850.00
2023-03-22T11:36:57.264Z,93842.00
2023-03-22T11:41:04.652Z,93854.00
2023-03-22T11:45:58.960Z,93851.00
2023-03-22T11:50:08.743Z,93840.00
2023-03-22T11:54:36.457Z,93846.00
2023-03-22T11:59:25.893Z,93825.00
2023-03-22T12:08:38.745Z,93857.00
2023-03-22T12:12:49.587Z,93841.00
2023-03-22T12:17:00.158Z,93839.00
2023-03-22T12:21:03.906Z,93825.00
2023-03-22T12:25:18.422Z,93832.00
2023-03-22T12:29:23.446Z,93831.00
2023-03-22T12:33:31.215Z,93825.00
2023-03-22T12:37:43.979Z,93819.00
2023-03-22T12:41:50.390Z,93811.00
2023-03-22T12:46:05.598Z,93805.00
2023-03-22T12:50:17.111Z,93789.00
2023-03-22T12:54:24.534Z,93802.00
2023-03-22T12:58:52.049Z,93804.00
2023-03-22T13:03:12.950Z,93781.00
2023-03-22T13:07:39.552Z,93772.00
2023-03-22T13:11:43.734Z,93783.00
2023-03-22T13:16:03.058Z,93776.00
2023-03-22T13:20:28.000Z,93765.00
2023-03-22T13:24:33.600Z,93774.00
2023-03-22T13:28:40.428Z,93748.00
2023-03-22T13:32:55.326Z,93755.00
2023-03-22T13:37:01.803Z,93758.00
2023-03-22T13:41:44.490Z,93754.00
2023-03-22T13:46:30.932Z,93756.00
2023-03-22T13:50:36.038Z,93754.00
2023-03-22T13:59:15.249Z,93757.00
2023-03-22T14:03:29.085Z,93744.00
2023-03-22T14:07:37.314Z,93747.00
2023-03-22T14:11:47.537Z,93744.00
2023-03-22T14:15:53.575Z,93723.00
2023-03-22T14:19:59.898Z,93742.00
